sensor_id;sensor_type;location;lat;lon;timestamp;temperature;humidity
64689;DHT22;51114;46.070;14.492;2022-07-10T00:00:12;19.20;99.90
64689;DHT22;51114;46.070;14.492;2022-07-10T00:02:42;19.20;99.90
64689;DHT22;51114;46.070;14.492;2022-07-10T00:05:09;19.20;99.90
64689;DHT22;51114;46.070;14.492;2022-07-10T00:07:35;19.10;99.90
64689;DHT22;51114;46.070;14.492;2022-07-10T00:10:02;19.00;99.90
64689;DHT22;51114;46.070;14.492;2022-07-10T00:12:28;19.00;99.90
64689;DHT22;51114;46.070;14.492;2022-07-10T00:14:54;19.00;99.90
64689;DHT22;51114;46.070;14.492;2022-07-10T00:17:19;19.00;99.90
64689;DHT22;51114;46.070;14.492;2022-07-10T00:19:45;19.00;99.90
64689;DHT22;51114;46.070;14.492;2022-07-10T00:22:11;18.90;99.90
64689;DHT22;51114;46.070;14.492;2022-07-10T00:24:37;18.80;99.90
64689;DHT22;51114;46.070;14.492;2022-07-10T00:27:02;18.70;99.90
64689;DHT22;51114;46.070;14.492;2022-07-10T00:29:28;18.80;99.90
64689;DHT22;51114;46.070;14.492;2022-07-10T00:31:54;18.80;99.90
64689;DHT22;51114;46.070;14.492;2022-07-10T00:34:19;18.80;99.90
64689;DHT22;51114;46.070;14.492;2022-07-10T00:36:45;18.70;99.90
64689;DHT22;51114;46.070;14.492;2022-07-10T00:39:11;18.80;99.90
64689;DHT22;51114;46.070;14.492;2022-07-10T00:41:36;18.80;99.90
64689;DHT22;51114;46.070;14.492;2022-07-10T00:44:03;18.80;99.90
64689;DHT22;51114;46.070;14.492;2022-07-10T00:46:29;18.70;99.90
64689;DHT22;51114;46.070;14.492;2022-07-10T00:48:56;18.80;99.90
64689;DHT22;51114;46.070;14.492;2022-07-10T00:51:25;18.90;99.90
64689;DHT22;51114;46.070;14.492;2022-07-10T00:53:51;18.90;99.90
64689;DHT22;51114;46.070;14.492;2022-07-10T00:56:19;18.90;99.90
64689;DHT22;51114;46.070;14.492;2022-07-10T00:58:49;18.70;99.90
64689;DHT22;51114;46.070;14.492;2022-07-10T01:01:15;18.70;99.90
64689;DHT22;51114;46.070;14.492;2022-07-10T01:03:42;18.70;99.90
64689;DHT22;51114;46.070;14.492;2022-07-10T01:06:09;18.60;99.90
64689;DHT22;51114;46.070;14.492;2022-07-10T01:08:35;18.70;99.90
64689;DHT22;51114;46.070;14.492;2022-07-10T01:11:01;18.70;99.90
64689;DHT22;51114;46.070;14.492;2022-07-10T01:13:27;18.70;99.90
64689;DHT22;51114;46.070;14.492;2022-07-10T01:15:53;18.80;99.90
64689;DHT22;51114;46.070;14.492;2022-07-10T01:18:19;18.80;99.90
64689;DHT22;51114;46.070;14.492;2022-07-10T01:20:45;18.90;99.90
64689;DHT22;51114;46.070;14.492;2022-07-10T01:23:11;18.70;99.90
64689;DHT22;51114;46.070;14.492;2022-07-10T01:25:37;18.10;99.90
64689;DHT22;51114;46.070;14.492;2022-07-10T01:28:03;18.30;99.90
64689;DHT22;51114;46.070;14.492;2022-07-10T01:30:28;18.50;99.90
64689;DHT22;51114;46.070;14.492;2022-07-10T01:32:54;18.60;99.90
64689;DHT22;51114;46.070;14.492;2022-07-10T01:35:20;18.70;99.90
64689;DHT22;51114;46.070;14.492;2022-07-10T01:37:46;18.70;99.90
64689;DHT22;51114;46.070;14.492;2022-07-10T01:40:12;18.60;99.90
64689;DHT22;51114;46.070;14.492;2022-07-10T01:42:38;18.70;99.90
64689;DHT22;51114;46.070;14.492;2022-07-10T01:45:08;18.60;99.90
64689;DHT22;51114;46.070;14.492;2022-07-10T01:47:35;18.80;99.90
64689;DHT22;51114;46.070;14.492;2022-07-10T01:50:02;18.50;99.90
64689;DHT22;51114;46.070;14.492;2022-07-10T01:52:28;18.40;99.90
64689;DHT22;51114;46.070;14.492;2022-07-10T01:54:54;18.20;99.90
64689;DHT22;51114;46.070;14.492;2022-07-10T01:57:20;18.00;99.90
64689;DHT22;51114;46.070;14.492;2022-07-10T01:59:45;18.30;99.90
64689;DHT22;51114;46.070;14.492;2022-07-10T02:02:11;18.50;99.90
64689;DHT22;51114;46.070;14.492;2022-07-10T02:04:37;18.60;99.90
64689;DHT22;51114;46.070;14.492;2022-07-10T02:07:16;18.60;99.90
64689;DHT22;51114;46.070;14.492;2022-07-10T02:09:42;18.70;99.90
64689;DHT22;51114;46.070;14.492;2022-07-10T02:12:10;18.80;99.90
64689;DHT22;51114;46.070;14.492;2022-07-10T02:14:36;18.90;99.90
64689;DHT22;51114;46.070;14.492;2022-07-10T02:17:04;18.80;99.90
64689;DHT22;51114;46.070;14.492;2022-07-10T02:19:29;18.80;99.90
64689;DHT22;51114;46.070;14.492;2022-07-10T02:21:55;18.70;99.90
64689;DHT22;51114;46.070;14.492;2022-07-10T02:24:21;18.90;99.90
64689;DHT22;51114;46.070;14.492;2022-07-10T02:26:46;18.90;99.90
64689;DHT22;51114;46.070;14.492;2022-07-10T02:29:12;18.90;99.90
64689;DHT22;51114;46.070;14.492;2022-07-10T02:31:37;18.80;99.90
64689;DHT22;51114;46.070;14.492;2022-07-10T02:34:09;18.50;99.90
64689;DHT22;51114;46.070;14.492;2022-07-10T02:36:35;18.30;99.90
64689;DHT22;51114;46.070;14.492;2022-07-10T02:39:03;18.30;99.90
64689;DHT22;51114;46.070;14.492;2022-07-10T02:41:29;18.20;99.90
64689;DHT22;51114;46.070;14.492;2022-07-10T02:43:55;18.00;99.90
64689;DHT22;51114;46.070;14.492;2022-07-10T02:46:21;18.00;99.90
64689;DHT22;51114;46.070;14.492;2022-07-10T02:48:47;18.10;99.90
64689;DHT22;51114;46.070;14.492;2022-07-10T02:51:12;17.90;99.90
64689;DHT22;51114;46.070;14.492;2022-07-10T02:53:38;17.90;99.90
64689;DHT22;51114;46.070;14.492;2022-07-10T02:56:04;17.80;99.90
64689;DHT22;51114;46.070;14.492;2022-07-10T02:58:30;17.90;99.90
64689;DHT22;51114;46.070;14.492;2022-07-10T03:00:56;18.10;99.90
64689;DHT22;51114;46.070;14.492;2022-07-10T03:03:21;18.00;99.90
64689;DHT22;51114;46.070;14.492;2022-07-10T03:05:48;17.90;99.90
64689;DHT22;51114;46.070;14.492;2022-07-10T03:08:13;17.50;99.90
64689;DHT22;51114;46.070;14.492;2022-07-10T03:10:39;17.70;99.90
64689;DHT22;51114;46.070;14.492;2022-07-10T03:13:06;18.00;99.90
64689;DHT22;51114;46.070;14.492;2022-07-10T03:15:31;18.10;99.90
64689;DHT22;51114;46.070;14.492;2022-07-10T03:17:57;18.30;99.90
64689;DHT22;51114;46.070;14.492;2022-07-10T03:20:23;18.30;99.90
64689;DHT22;51114;46.070;14.492;2022-07-10T03:22:49;18.40;99.90
64689;DHT22;51114;46.070;14.492;2022-07-10T03:25:15;18.40;99.90
64689;DHT22;51114;46.070;14.492;2022-07-10T03:27:40;18.30;99.90
64689;DHT22;51114;46.070;14.492;2022-07-10T03:30:07;18.20;99.90
64689;DHT22;51114;46.070;14.492;2022-07-10T03:32:33;18.20;99.90
64689;DHT22;51114;46.070;14.492;2022-07-10T03:34:59;18.10;99.90
64689;DHT22;51114;46.070;14.492;2022-07-10T03:37:24;18.10;99.90
64689;DHT22;51114;46.070;14.492;2022-07-10T03:39:50;18.00;99.90
64689;DHT22;51114;46.070;14.492;2022-07-10T03:42:16;18.10;99.90
64689;DHT22;51114;46.070;14.492;2022-07-10T03:44:42;17.80;99.90
64689;DHT22;51114;46.070;14.492;2022-07-10T03:47:08;18.00;99.90
64689;DHT22;51114;46.070;14.492;2022-07-10T03:49:33;18.00;99.90
64689;DHT22;51114;46.070;14.492;2022-07-10T03:52:00;18.00;99.90
64689;DHT22;51114;46.070;14.492;2022-07-10T03:54:26;18.00;99.90
64689;DHT22;51114;46.070;14.492;2022-07-10T03:56:52;18.00;99.90
64689;DHT22;51114;46.070;14.492;2022-07-10T03:59:36;17.90;99.90
64689;DHT22;51114;46.070;14.492;2022-07-10T04:02:02;17.70;99.90
64689;DHT22;51114;46.070;14.492;2022-07-10T04:04:27;17.70;99.90
64689;DHT22;51114;46.070;14.492;2022-07-10T04:06:53;17.80;99.90
64689;DHT22;51114;46.070;14.492;2022-07-10T04:09:19;18.00;99.90
64689;DHT22;51114;46.070;14.492;2022-07-10T04:11:45;18.10;99.90
64689;DHT22;51114;46.070;14.492;2022-07-10T04:14:10;18.10;99.90
64689;DHT22;51114;46.070;14.492;2022-07-10T04:16:36;18.20;99.90
64689;DHT22;51114;46.070;14.492;2022-07-10T04:19:02;18.10;99.90
64689;DHT22;51114;46.070;14.492;2022-07-10T04:21:28;17.80;99.90
64689;DHT22;51114;46.070;14.492;2022-07-10T04:23:54;17.80;99.90
64689;DHT22;51114;46.070;14.492;2022-07-10T04:26:19;18.00;99.90
64689;DHT22;51114;46.070;14.492;2022-07-10T04:28:45;18.10;99.90
64689;DHT22;51114;46.070;14.492;2022-07-10T04:31:11;18.20;99.90
64689;DHT22;51114;46.070;14.492;2022-07-10T04:33:36;18.30;99.90
64689;DHT22;51114;46.070;14.492;2022-07-10T04:36:02;18.30;99.90
64689;DHT22;51114;46.070;14.492;2022-07-10T04:38:28;18.30;99.90
64689;DHT22;51114;46.070;14.492;2022-07-10T04:40:54;18.20;99.90
64689;DHT22;51114;46.070;14.492;2022-07-10T04:43:20;18.40;99.90
64689;DHT22;51114;46.070;14.492;2022-07-10T04:45:46;18.40;99.90
64689;DHT22;51114;46.070;14.492;2022-07-10T04:48:11;18.50;99.90
64689;DHT22;51114;46.070;14.492;2022-07-10T04:50:37;18.30;99.90
64689;DHT22;51114;46.070;14.492;2022-07-10T04:53:03;18.30;99.90
64689;DHT22;51114;46.070;14.492;2022-07-10T04:55:29;18.50;99.90
64689;DHT22;51114;46.070;14.492;2022-07-10T04:57:54;18.60;99.90
64689;DHT22;51114;46.070;14.492;2022-07-10T05:00:20;18.60;99.90
64689;DHT22;51114;46.070;14.492;2022-07-10T05:02:46;18.60;99.90
64689;DHT22;51114;46.070;14.492;2022-07-10T05:05:12;18.50;99.90
64689;DHT22;51114;46.070;14.492;2022-07-10T05:07:37;18.50;99.90
64689;DHT22;51114;46.070;14.492;2022-07-10T05:10:03;18.50;99.90
64689;DHT22;51114;46.070;14.492;2022-07-10T05:12:29;18.50;99.90
64689;DHT22;51114;46.070;14.492;2022-07-10T05:14:55;18.60;99.90
64689;DHT22;51114;46.070;14.492;2022-07-10T05:17:21;18.60;99.90
64689;DHT22;51114;46.070;14.492;2022-07-10T05:19:46;18.50;99.90
64689;DHT22;51114;46.070;14.492;2022-07-10T05:22:12;18.60;99.90
64689;DHT22;51114;46.070;14.492;2022-07-10T05:24:38;18.40;99.90
64689;DHT22;51114;46.070;14.492;2022-07-10T05:27:04;18.60;99.90
64689;DHT22;51114;46.070;14.492;2022-07-10T05:29:29;18.80;99.90
64689;DHT22;51114;46.070;14.492;2022-07-10T05:31:55;18.90;99.90
64689;DHT22;51114;46.070;14.492;2022-07-10T05:34:20;19.10;99.90
64689;DHT22;51114;46.070;14.492;2022-07-10T05:36:46;19.20;99.90
64689;DHT22;51114;46.070;14.492;2022-07-10T05:39:12;19.30;99.90
64689;DHT22;51114;46.070;14.492;2022-07-10T05:41:37;19.40;99.90
64689;DHT22;51114;46.070;14.492;2022-07-10T05:44:03;19.50;99.90
64689;DHT22;51114;46.070;14.492;2022-07-10T05:46:29;19.60;99.90
64689;DHT22;51114;46.070;14.492;2022-07-10T05:48:54;19.40;99.90
64689;DHT22;51114;46.070;14.492;2022-07-10T05:51:20;19.40;99.90
64689;DHT22;51114;46.070;14.492;2022-07-10T05:53:46;19.40;99.90
64689;DHT22;51114;46.070;14.492;2022-07-10T05:56:12;19.50;99.90
64689;DHT22;51114;46.070;14.492;2022-07-10T05:58:38;19.50;99.90
64689;DHT22;51114;46.070;14.492;2022-07-10T06:01:04;19.40;99.90
64689;DHT22;51114;46.070;14.492;2022-07-10T06:03:29;19.40;99.90
64689;DHT22;51114;46.070;14.492;2022-07-10T06:05:55;19.50;99.90
64689;DHT22;51114;46.070;14.492;2022-07-10T06:08:21;19.50;99.90
64689;DHT22;51114;46.070;14.492;2022-07-10T06:10:46;19.50;99.90
64689;DHT22;51114;46.070;14.492;2022-07-10T06:13:12;19.50;99.90
64689;DHT22;51114;46.070;14.492;2022-07-10T06:15:38;19.40;99.90
64689;DHT22;51114;46.070;14.492;2022-07-10T06:18:04;19.40;99.90
64689;DHT22;51114;46.070;14.492;2022-07-10T06:20:30;19.40;99.90
64689;DHT22;51114;46.070;14.492;2022-07-10T06:22:56;19.50;99.90
64689;DHT22;51114;46.070;14.492;2022-07-10T06:25:22;19.20;99.90
64689;DHT22;51114;46.070;14.492;2022-07-10T06:27:48;19.40;99.90
64689;DHT22;51114;46.070;14.492;2022-07-10T06:30:14;19.50;99.90
64689;DHT22;51114;46.070;14.492;2022-07-10T06:32:40;19.50;99.90
64689;DHT22;51114;46.070;14.492;2022-07-10T06:35:06;19.60;99.90
64689;DHT22;51114;46.070;14.492;2022-07-10T06:37:33;19.80;99.90
64689;DHT22;51114;46.070;14.492;2022-07-10T06:39:59;19.90;99.90
64689;DHT22;51114;46.070;14.492;2022-07-10T06:42:24;19.80;99.90
64689;DHT22;51114;46.070;14.492;2022-07-10T06:44:50;19.80;99.90
64689;DHT22;51114;46.070;14.492;2022-07-10T06:47:18;19.70;99.90
64689;DHT22;51114;46.070;14.492;2022-07-10T06:50:04;19.70;99.90
64689;DHT22;51114;46.070;14.492;2022-07-10T06:52:32;19.60;99.90
64689;DHT22;51114;46.070;14.492;2022-07-10T06:54:58;19.60;99.90
64689;DHT22;51114;46.070;14.492;2022-07-10T06:57:24;19.50;99.90
64689;DHT22;51114;46.070;14.492;2022-07-10T06:59:49;19.50;99.90
64689;DHT22;51114;46.070;14.492;2022-07-10T07:02:16;19.40;99.90
64689;DHT22;51114;46.070;14.492;2022-07-10T07:04:42;19.40;99.90
64689;DHT22;51114;46.070;14.492;2022-07-10T07:07:10;19.50;99.90
64689;DHT22;51114;46.070;14.492;2022-07-10T07:09:35;19.60;99.90
64689;DHT22;51114;46.070;14.492;2022-07-10T07:12:01;19.60;99.90
64689;DHT22;51114;46.070;14.492;2022-07-10T07:14:27;19.60;99.90
64689;DHT22;51114;46.070;14.492;2022-07-10T07:16:53;19.60;99.90
64689;DHT22;51114;46.070;14.492;2022-07-10T07:19:29;19.50;99.90
64689;DHT22;51114;46.070;14.492;2022-07-10T07:22:00;19.50;99.90
64689;DHT22;51114;46.070;14.492;2022-07-10T07:24:44;19.50;99.90
64689;DHT22;51114;46.070;14.492;2022-07-10T07:27:13;19.60;99.90
64689;DHT22;51114;46.070;14.492;2022-07-10T07:29:38;19.60;99.90
64689;DHT22;51114;46.070;14.492;2022-07-10T07:32:05;19.60;99.90
64689;DHT22;51114;46.070;14.492;2022-07-10T07:34:30;19.70;99.90
64689;DHT22;51114;46.070;14.492;2022-07-10T07:36:57;19.60;99.90
64689;DHT22;51114;46.070;14.492;2022-07-10T07:39:23;19.70;99.90
64689;DHT22;51114;46.070;14.492;2022-07-10T07:41:49;19.60;99.90
64689;DHT22;51114;46.070;14.492;2022-07-10T07:44:15;19.70;99.90
64689;DHT22;51114;46.070;14.492;2022-07-10T07:46:43;19.60;99.90
64689;DHT22;51114;46.070;14.492;2022-07-10T07:49:09;19.60;99.90
64689;DHT22;51114;46.070;14.492;2022-07-10T07:51:34;19.60;99.90
64689;DHT22;51114;46.070;14.492;2022-07-10T07:54:00;19.60;99.90
64689;DHT22;51114;46.070;14.492;2022-07-10T07:56:26;19.70;99.90
64689;DHT22;51114;46.070;14.492;2022-07-10T07:58:51;19.70;99.90
64689;DHT22;51114;46.070;14.492;2022-07-10T08:01:17;19.80;99.90
64689;DHT22;51114;46.070;14.492;2022-07-10T08:03:45;19.80;99.90
64689;DHT22;51114;46.070;14.492;2022-07-10T08:06:11;20.10;99.90
64689;DHT22;51114;46.070;14.492;2022-07-10T08:08:37;20.00;99.90
64689;DHT22;51114;46.070;14.492;2022-07-10T08:11:02;20.00;99.90
64689;DHT22;51114;46.070;14.492;2022-07-10T08:13:28;20.10;99.90
64689;DHT22;51114;46.070;14.492;2022-07-10T08:15:54;20.20;99.90
64689;DHT22;51114;46.070;14.492;2022-07-10T08:18:20;20.10;99.90
64689;DHT22;51114;46.070;14.492;2022-07-10T08:20:48;20.20;99.90
64689;DHT22;51114;46.070;14.492;2022-07-10T08:23:14;20.30;99.90
64689;DHT22;51114;46.070;14.492;2022-07-10T08:25:39;20.30;99.90
64689;DHT22;51114;46.070;14.492;2022-07-10T08:28:05;20.50;99.90
64689;DHT22;51114;46.070;14.492;2022-07-10T08:30:34;20.60;99.90
64689;DHT22;51114;46.070;14.492;2022-07-10T08:33:00;20.70;99.90
64689;DHT22;51114;46.070;14.492;2022-07-10T08:35:26;20.80;99.90
64689;DHT22;51114;46.070;14.492;2022-07-10T08:37:51;20.90;99.90
64689;DHT22;51114;46.070;14.492;2022-07-10T08:40:17;20.90;99.90
64689;DHT22;51114;46.070;14.492;2022-07-10T08:42:46;20.70;99.90
64689;DHT22;51114;46.070;14.492;2022-07-10T08:45:13;20.90;99.90
64689;DHT22;51114;46.070;14.492;2022-07-10T08:47:39;21.00;99.90
64689;DHT22;51114;46.070;14.492;2022-07-10T08:50:17;21.10;99.90
64689;DHT22;51114;46.070;14.492;2022-07-10T08:52:55;21.10;99.90
64689;DHT22;51114;46.070;14.492;2022-07-10T08:55:25;21.00;99.90
64689;DHT22;51114;46.070;14.492;2022-07-10T08:57:51;21.00;99.90
64689;DHT22;51114;46.070;14.492;2022-07-10T09:00:18;20.90;99.90
64689;DHT22;51114;46.070;14.492;2022-07-10T09:02:43;20.90;99.90
64689;DHT22;51114;46.070;14.492;2022-07-10T09:05:09;20.70;99.90
64689;DHT22;51114;46.070;14.492;2022-07-10T09:07:36;20.60;99.90
64689;DHT22;51114;46.070;14.492;2022-07-10T09:10:07;20.60;99.90
64689;DHT22;51114;46.070;14.492;2022-07-10T09:15:19;20.40;99.90
64689;DHT22;51114;46.070;14.492;2022-07-10T09:20:35;20.20;99.90
64689;DHT22;51114;46.070;14.492;2022-07-10T09:23:20;19.90;99.90
64689;DHT22;51114;46.070;14.492;2022-07-10T09:25:48;19.60;99.90
64689;DHT22;51114;46.070;14.492;2022-07-10T09:28:16;19.70;99.90
64689;DHT22;51114;46.070;14.492;2022-07-10T09:30:42;19.60;99.90
64689;DHT22;51114;46.070;14.492;2022-07-10T09:43:44;19.20;99.90
64689;DHT22;51114;46.070;14.492;2022-07-10T09:46:13;18.80;99.90
64689;DHT22;51114;46.070;14.492;2022-07-10T09:48:39;18.20;99.90
64689;DHT22;51114;46.070;14.492;2022-07-10T09:51:07;18.00;99.90
64689;DHT22;51114;46.070;14.492;2022-07-10T09:53:38;18.30;99.90
64689;DHT22;51114;46.070;14.492;2022-07-10T09:56:08;18.40;99.90
64689;DHT22;51114;46.070;14.492;2022-07-10T09:58:35;18.50;99.90
64689;DHT22;51114;46.070;14.492;2022-07-10T10:01:05;18.70;99.90
64689;DHT22;51114;46.070;14.492;2022-07-10T10:03:36;19.10;99.90
64689;DHT22;51114;46.070;14.492;2022-07-10T10:06:11;19.30;99.90
64689;DHT22;51114;46.070;14.492;2022-07-10T10:11:08;19.40;99.90
64689;DHT22;51114;46.070;14.492;2022-07-10T10:13:38;19.60;99.90
64689;DHT22;51114;46.070;14.492;2022-07-10T10:16:06;20.00;99.90
64689;DHT22;51114;46.070;14.492;2022-07-10T10:18:34;20.20;99.90
64689;DHT22;51114;46.070;14.492;2022-07-10T10:21:01;20.40;99.90
64689;DHT22;51114;46.070;14.492;2022-07-10T10:23:30;20.10;99.90
64689;DHT22;51114;46.070;14.492;2022-07-10T10:25:57;20.10;99.90
64689;DHT22;51114;46.070;14.492;2022-07-10T10:28:24;20.10;99.90
64689;DHT22;51114;46.070;14.492;2022-07-10T10:30:55;20.60;99.90
64689;DHT22;51114;46.070;14.492;2022-07-10T10:33:44;21.00;99.90
64689;DHT22;51114;46.070;14.492;2022-07-10T10:36:12;21.40;99.90
64689;DHT22;51114;46.070;14.492;2022-07-10T10:46:33;21.30;99.90
64689;DHT22;51114;46.070;14.492;2022-07-10T10:49:06;21.30;99.90
64689;DHT22;51114;46.070;14.492;2022-07-10T10:54:23;21.40;99.90
64689;DHT22;51114;46.070;14.492;2022-07-10T10:59:50;21.50;99.90
64689;DHT22;51114;46.070;14.492;2022-07-10T11:04:51;22.00;99.90
64689;DHT22;51114;46.070;14.492;2022-07-10T11:07:54;21.90;99.90
64689;DHT22;51114;46.070;14.492;2022-07-10T11:13:04;21.60;99.90
64689;DHT22;51114;46.070;14.492;2022-07-10T11:15:32;21.90;99.90
64689;DHT22;51114;46.070;14.492;2022-07-10T11:18:04;21.80;99.90
64689;DHT22;51114;46.070;14.492;2022-07-10T11:20:51;21.60;99.90
64689;DHT22;51114;46.070;14.492;2022-07-10T11:26:07;21.90;99.90
64689;DHT22;51114;46.070;14.492;2022-07-10T11:28:58;22.20;99.90
64689;DHT22;51114;46.070;14.492;2022-07-10T11:31:26;22.00;99.90
64689;DHT22;51114;46.070;14.492;2022-07-10T11:33:54;22.10;99.90
64689;DHT22;51114;46.070;14.492;2022-07-10T11:36:25;22.00;99.90
64689;DHT22;51114;46.070;14.492;2022-07-10T11:39:02;21.90;99.90
64689;DHT22;51114;46.070;14.492;2022-07-10T11:41:29;21.90;99.90
64689;DHT22;51114;46.070;14.492;2022-07-10T11:43:56;22.20;99.90
64689;DHT22;51114;46.070;14.492;2022-07-10T11:46:25;22.20;99.90
64689;DHT22;51114;46.070;14.492;2022-07-10T11:48:51;22.10;99.90
64689;DHT22;51114;46.070;14.492;2022-07-10T11:51:28;22.20;99.90
64689;DHT22;51114;46.070;14.492;2022-07-10T11:54:06;22.40;99.90
64689;DHT22;51114;46.070;14.492;2022-07-10T11:56:36;22.60;99.90
64689;DHT22;51114;46.070;14.492;2022-07-10T11:59:05;22.70;99.90
64689;DHT22;51114;46.070;14.492;2022-07-10T12:01:33;22.70;99.90
64689;DHT22;51114;46.070;14.492;2022-07-10T12:04:06;22.50;99.90
64689;DHT22;51114;46.070;14.492;2022-07-10T12:09:06;22.60;99.90
64689;DHT22;51114;46.070;14.492;2022-07-10T12:11:32;22.70;99.90
64689;DHT22;51114;46.070;14.492;2022-07-10T12:14:17;22.70;99.90
64689;DHT22;51114;46.070;14.492;2022-07-10T12:16:49;23.00;99.90
64689;DHT22;51114;46.070;14.492;2022-07-10T12:19:24;22.90;99.90
64689;DHT22;51114;46.070;14.492;2022-07-10T12:21:51;22.90;99.90
64689;DHT22;51114;46.070;14.492;2022-07-10T12:24:17;23.30;99.90
64689;DHT22;51114;46.070;14.492;2022-07-10T12:26:45;23.30;99.90
64689;DHT22;51114;46.070;14.492;2022-07-10T12:29:22;23.20;99.90
64689;DHT22;51114;46.070;14.492;2022-07-10T12:31:51;23.30;99.90
64689;DHT22;51114;46.070;14.492;2022-07-10T12:34:17;23.30;99.90
64689;DHT22;51114;46.070;14.492;2022-07-10T12:36:51;23.20;99.90
64689;DHT22;51114;46.070;14.492;2022-07-10T12:39:23;23.30;99.90
64689;DHT22;51114;46.070;14.492;2022-07-10T12:42:02;23.40;99.90
64689;DHT22;51114;46.070;14.492;2022-07-10T12:44:49;23.40;99.90
64689;DHT22;51114;46.070;14.492;2022-07-10T12:47:16;23.50;99.90
64689;DHT22;51114;46.070;14.492;2022-07-10T12:50:02;23.60;99.90
64689;DHT22;51114;46.070;14.492;2022-07-10T12:52:32;23.60;99.90
64689;DHT22;51114;46.070;14.492;2022-07-10T12:55:09;23.60;99.90
64689;DHT22;51114;46.070;14.492;2022-07-10T12:57:57;23.50;99.90
64689;DHT22;51114;46.070;14.492;2022-07-10T13:02:56;23.70;99.90
64689;DHT22;51114;46.070;14.492;2022-07-10T13:05:39;23.90;99.90
64689;DHT22;51114;46.070;14.492;2022-07-10T13:08:17;23.80;99.90
64689;DHT22;51114;46.070;14.492;2022-07-10T13:10:56;23.50;99.90
64689;DHT22;51114;46.070;14.492;2022-07-10T13:13:24;23.40;99.90
64689;DHT22;51114;46.070;14.492;2022-07-10T13:15:50;23.40;99.90
64689;DHT22;51114;46.070;14.492;2022-07-10T13:18:23;23.40;99.90
64689;DHT22;51114;46.070;14.492;2022-07-10T13:20:49;23.50;99.90
64689;DHT22;51114;46.070;14.492;2022-07-10T13:23:16;23.50;99.90
64689;DHT22;51114;46.070;14.492;2022-07-10T13:25:49;23.50;99.90
64689;DHT22;51114;46.070;14.492;2022-07-10T13:28:14;23.70;99.90
64689;DHT22;51114;46.070;14.492;2022-07-10T13:30:42;23.60;99.90
64689;DHT22;51114;46.070;14.492;2022-07-10T13:33:08;23.70;99.90
64689;DHT22;51114;46.070;14.492;2022-07-10T13:35:35;23.80;99.90
64689;DHT22;51114;46.070;14.492;2022-07-10T13:38:05;24.00;99.90
64689;DHT22;51114;46.070;14.492;2022-07-10T13:40:32;24.00;99.90
64689;DHT22;51114;46.070;14.492;2022-07-10T13:42:58;24.10;99.90
64689;DHT22;51114;46.070;14.492;2022-07-10T13:45:25;24.20;99.90
64689;DHT22;51114;46.070;14.492;2022-07-10T13:47:52;24.20;99.90
64689;DHT22;51114;46.070;14.492;2022-07-10T13:50:21;24.30;99.90
64689;DHT22;51114;46.070;14.492;2022-07-10T13:52:47;24.20;99.90
64689;DHT22;51114;46.070;14.492;2022-07-10T13:55:12;24.00;99.90
64689;DHT22;51114;46.070;14.492;2022-07-10T13:57:39;24.00;99.90
64689;DHT22;51114;46.070;14.492;2022-07-10T14:00:05;24.00;99.90
64689;DHT22;51114;46.070;14.492;2022-07-10T14:02:31;24.00;99.90
64689;DHT22;51114;46.070;14.492;2022-07-10T14:04:57;24.00;99.90
64689;DHT22;51114;46.070;14.492;2022-07-10T14:07:23;24.00;99.90
64689;DHT22;51114;46.070;14.492;2022-07-10T14:09:48;24.00;99.90
64689;DHT22;51114;46.070;14.492;2022-07-10T14:12:14;24.00;99.90
64689;DHT22;51114;46.070;14.492;2022-07-10T14:14:40;24.00;99.90
64689;DHT22;51114;46.070;14.492;2022-07-10T14:17:06;23.90;99.90
64689;DHT22;51114;46.070;14.492;2022-07-10T14:19:31;23.90;99.90
64689;DHT22;51114;46.070;14.492;2022-07-10T14:21:57;23.90;99.90
64689;DHT22;51114;46.070;14.492;2022-07-10T14:24:23;24.00;99.90
64689;DHT22;51114;46.070;14.492;2022-07-10T14:26:48;24.00;99.90
64689;DHT22;51114;46.070;14.492;2022-07-10T14:29:14;24.00;99.90
64689;DHT22;51114;46.070;14.492;2022-07-10T14:31:40;24.00;99.90
64689;DHT22;51114;46.070;14.492;2022-07-10T14:34:05;23.90;99.60
64689;DHT22;51114;46.070;14.492;2022-07-10T14:36:32;23.70;99.90
64689;DHT22;51114;46.070;14.492;2022-07-10T14:38:58;23.60;99.90
64689;DHT22;51114;46.070;14.492;2022-07-10T14:41:24;23.40;99.90
64689;DHT22;51114;46.070;14.492;2022-07-10T14:43:50;23.30;99.90
64689;DHT22;51114;46.070;14.492;2022-07-10T14:46:16;23.50;99.90
64689;DHT22;51114;46.070;14.492;2022-07-10T14:48:42;23.50;99.90
64689;DHT22;51114;46.070;14.492;2022-07-10T14:51:08;23.40;99.90
64689;DHT22;51114;46.070;14.492;2022-07-10T14:53:35;23.40;99.90
64689;DHT22;51114;46.070;14.492;2022-07-10T14:56:02;23.30;99.90
64689;DHT22;51114;46.070;14.492;2022-07-10T14:58:28;23.40;99.90
64689;DHT22;51114;46.070;14.492;2022-07-10T15:00:54;23.30;99.90
64689;DHT22;51114;46.070;14.492;2022-07-10T15:03:19;22.70;99.90
64689;DHT22;51114;46.070;14.492;2022-07-10T15:05:45;22.80;99.90
64689;DHT22;51114;46.070;14.492;2022-07-10T15:08:11;22.40;99.90
64689;DHT22;51114;46.070;14.492;2022-07-10T15:10:36;22.30;99.90
64689;DHT22;51114;46.070;14.492;2022-07-10T15:13:02;22.30;99.90
64689;DHT22;51114;46.070;14.492;2022-07-10T15:15:31;22.40;99.90
64689;DHT22;51114;46.070;14.492;2022-07-10T15:17:57;22.40;99.90
64689;DHT22;51114;46.070;14.492;2022-07-10T15:20:23;22.50;99.90
64689;DHT22;51114;46.070;14.492;2022-07-10T15:22:48;22.30;99.90
64689;DHT22;51114;46.070;14.492;2022-07-10T15:25:14;22.20;99.90
64689;DHT22;51114;46.070;14.492;2022-07-10T15:27:40;22.30;99.90
64689;DHT22;51114;46.070;14.492;2022-07-10T15:30:08;22.30;99.90
64689;DHT22;51114;46.070;14.492;2022-07-10T15:32:36;21.90;99.90
64689;DHT22;51114;46.070;14.492;2022-07-10T15:35:02;22.10;99.90
64689;DHT22;51114;46.070;14.492;2022-07-10T15:37:28;22.00;99.90
64689;DHT22;51114;46.070;14.492;2022-07-10T15:39:54;22.00;99.90
64689;DHT22;51114;46.070;14.492;2022-07-10T15:42:20;22.00;99.90
64689;DHT22;51114;46.070;14.492;2022-07-10T15:44:46;22.00;99.90
64689;DHT22;51114;46.070;14.492;2022-07-10T15:47:11;21.90;99.90
64689;DHT22;51114;46.070;14.492;2022-07-10T15:49:37;22.00;99.90
64689;DHT22;51114;46.070;14.492;2022-07-10T15:52:04;22.00;99.90
64689;DHT22;51114;46.070;14.492;2022-07-10T15:54:30;22.00;99.90
64689;DHT22;51114;46.070;14.492;2022-07-10T15:56:56;22.10;99.90
64689;DHT22;51114;46.070;14.492;2022-07-10T15:59:22;22.10;99.90
64689;DHT22;51114;46.070;14.492;2022-07-10T16:01:51;22.10;99.90